createdAt,value
2024-05-09T00:00:43.477Z,2.58
2024-05-09T00:03:11.980Z,3.10
2024-05-09T00:05:45.927Z,2.05
2024-05-09T00:08:13.613Z,2.88
2024-05-09T00:10:41.577Z,2.50
2024-05-09T00:13:10.766Z,2.88
2024-05-09T00:15:39.065Z,2.28
2024-05-09T00:18:07.755Z,2.47
2024-05-09T00:20:39.790Z,3.28
2024-05-09T00:23:16.046Z,2.53
2024-05-09T00:25:44.085Z,2.40
2024-05-09T00:28:12.480Z,2.35
2024-05-09T00:30:39.933Z,3.90
2024-05-09T00:33:09.766Z,2.30
2024-05-09T00:35:38.891Z,2.35
2024-05-09T00:38:06.618Z,2.70
2024-05-09T00:40:41.872Z,2.65
2024-05-09T00:43:12.391Z,2.63
2024-05-09T00:45:40.785Z,2.38
2024-05-09T00:48:10.425Z,2.75
2024-05-09T00:50:43.635Z,2.10
2024-05-09T00:53:13.054Z,2.92
2024-05-09T00:55:41.079Z,3.05
2024-05-09T00:58:12.389Z,2.53
2024-05-09T01:00:41.636Z,2.63
2024-05-09T01:03:12.544Z,2.38
2024-05-09T01:05:42.108Z,3.42
2024-05-09T01:08:10.991Z,2.75
2024-05-09T01:10:39.483Z,2.58
2024-05-09T01:13:08.035Z,2.47
2024-05-09T01:15:35.955Z,2.78
2024-05-09T01:18:10.714Z,2.47
2024-05-09T01:20:42.528Z,2.58
2024-05-09T01:23:14.800Z,2.10
2024-05-09T01:25:45.985Z,2.17
2024-05-09T01:28:14.272Z,2.42
2024-05-09T01:30:41.731Z,2.38
2024-05-09T01:33:10.798Z,2.80
2024-05-09T01:35:42.130Z,2.92
2024-05-09T01:38:13.754Z,2.60
2024-05-09T01:40:41.632Z,2.97
2024-05-09T01:43:10.867Z,2.67
2024-05-09T01:45:40.295Z,2.80
2024-05-09T01:48:09.272Z,2.65
2024-05-09T01:50:40.708Z,2.78
2024-05-09T01:53:15.140Z,1.65
2024-05-09T01:55:43.483Z,2.75
2024-05-09T01:58:11.068Z,2.63
2024-05-09T02:00:42.391Z,3.03
2024-05-09T02:03:15.334Z,2.80
2024-05-09T02:05:46.579Z,3.45
2024-05-09T02:08:19.434Z,2.55
2024-05-09T02:10:48.379Z,2.97
2024-05-09T02:13:18.239Z,2.80
2024-05-09T02:15:46.024Z,2.67
2024-05-09T02:18:14.258Z,2.58
2024-05-09T02:20:42.780Z,2.72
2024-05-09T02:23:11.101Z,2.90
2024-05-09T02:25:38.508Z,2.90
2024-05-09T02:28:06.278Z,3.20
2024-05-09T02:33:04.160Z,2.63
2024-05-09T02:35:31.839Z,2.13
2024-05-09T02:37:59.168Z,2.70
2024-05-09T02:40:35.430Z,2.10
2024-05-09T02:43:05.884Z,2.55
2024-05-09T02:45:33.505Z,2.70
2024-05-09T02:48:01.733Z,2.75
2024-05-09T02:50:36.754Z,2.47
2024-05-09T02:53:07.826Z,2.83
2024-05-09T02:55:35.355Z,2.95
2024-05-09T02:58:02.745Z,3.10
2024-05-09T03:00:38.094Z,3.50
2024-05-09T03:03:10.571Z,2.95
2024-05-09T03:05:40.400Z,2.85
2024-05-09T03:08:08.116Z,3.13
2024-05-09T03:10:37.890Z,2.83
2024-05-09T03:13:08.278Z,2.75
2024-05-09T03:15:36.093Z,2.08
2024-05-09T03:18:04.903Z,2.75
2024-05-09T03:20:35.056Z,2.47
2024-05-09T03:23:05.014Z,3.13
2024-05-09T03:25:32.900Z,2.63
2024-05-09T03:28:00.217Z,3.17
2024-05-09T03:30:39.053Z,2.83
2024-05-09T03:33:19.384Z,2.55
2024-05-09T03:35:49.086Z,3.08
2024-05-09T03:38:17.160Z,2.53
2024-05-09T03:40:46.329Z,2.40
2024-05-09T03:43:14.537Z,2.55
2024-05-09T03:45:45.305Z,2.38
2024-05-09T03:48:13.232Z,2.88
2024-05-09T03:50:40.955Z,2.80
2024-05-09T03:53:13.235Z,3.03
2024-05-09T03:55:40.867Z,2.58
2024-05-09T03:58:08.895Z,2.22
2024-05-09T04:00:39.273Z,2.50
2024-05-09T04:03:10.829Z,2.42
2024-05-09T04:05:41.189Z,2.47
2024-05-09T04:08:10.691Z,2.20
2024-05-09T04:10:38.551Z,2.10
2024-05-09T04:13:05.943Z,2.40
2024-05-09T04:15:36.430Z,2.75
2024-05-09T04:18:04.151Z,2.17
2024-05-09T04:20:38.269Z,2.47
2024-05-09T04:23:12.097Z,2.53
2024-05-09T04:25:48.083Z,2.90
2024-05-09T04:28:15.627Z,1.77
2024-05-09T04:30:43.529Z,2.75
2024-05-09T04:33:13.320Z,2.42
2024-05-09T04:35:45.297Z,3.30
2024-05-09T04:38:14.413Z,2.03
2024-05-09T04:40:42.282Z,2.17
2024-05-09T04:43:20.220Z,2.22
2024-05-09T04:45:47.523Z,1.83
2024-05-09T04:48:15.193Z,2.30
2024-05-09T04:50:42.782Z,2.20
2024-05-09T04:53:11.448Z,2.17
2024-05-09T04:55:40.681Z,2.08
2024-05-09T04:58:09.204Z,1.80
2024-05-09T05:00:39.019Z,1.63
2024-05-09T05:03:14.307Z,1.92
2024-05-09T05:05:45.230Z,2.05
2024-05-09T05:08:18.654Z,2.15
2024-05-09T05:10:48.205Z,1.90
2024-05-09T05:13:18.326Z,2.25
2024-05-09T05:15:47.524Z,1.85
2024-05-09T05:18:15.938Z,1.98
2024-05-09T05:20:43.758Z,1.77
2024-05-09T05:23:13.691Z,1.75
2024-05-09T05:25:44.909Z,1.85
2024-05-09T05:28:12.218Z,1.98
2024-05-09T05:30:41.154Z,1.80
2024-05-09T05:33:12.380Z,1.88
2024-05-09T05:35:40.761Z,2.35
2024-05-09T05:38:09.459Z,1.70
2024-05-09T05:40:38.574Z,1.40
2024-05-09T05:43:11.192Z,1.50
2024-05-09T05:45:39.333Z,1.63
2024-05-09T05:48:07.764Z,1.55
2024-05-09T05:50:37.626Z,1.77
2024-05-09T05:53:08.092Z,1.52
2024-05-09T05:55:40.424Z,2.00
2024-05-09T05:58:12.307Z,1.63
2024-05-09T06:00:42.590Z,1.40
2024-05-09T06:03:13.571Z,1.63
2024-05-09T06:05:44.394Z,1.30
2024-05-09T06:08:12.649Z,1.30
2024-05-09T06:10:41.689Z,1.30
2024-05-09T06:13:20.613Z,1.70
2024-05-09T06:15:47.815Z,1.40
2024-05-09T06:18:15.462Z,1.33
2024-05-09T06:20:44.183Z,0.93
2024-05-09T06:23:13.112Z,1.73
2024-05-09T06:25:42.383Z,1.30
2024-05-09T06:28:10.432Z,1.42
2024-05-09T06:30:42.236Z,1.77
2024-05-09T06:33:14.444Z,1.60
2024-05-09T06:35:44.382Z,1.70
2024-05-09T06:38:12.342Z,1.52
2024-05-09T06:40:42.935Z,1.70
2024-05-09T06:43:17.339Z,1.38
2024-05-09T06:45:49.899Z,2.28
2024-05-09T06:48:21.254Z,2.05
2024-05-09T06:50:49.676Z,1.52
2024-05-09T06:53:17.894Z,1.55
2024-05-09T06:55:45.334Z,1.38
2024-05-09T06:58:13.043Z,1.05
2024-05-09T07:00:41.843Z,1.05
2024-05-09T07:03:13.292Z,1.40
2024-05-09T07:05:42.954Z,1.23
2024-05-09T07:08:11.008Z,1.35
2024-05-09T07:10:39.082Z,1.50
2024-05-09T07:13:12.754Z,1.73
2024-05-09T07:18:12.220Z,1.58
2024-05-09T07:20:40.725Z,1.35
2024-05-09T07:23:12.589Z,1.42
2024-05-09T07:25:41.484Z,1.30
2024-05-09T07:28:30.281Z,1.52
2024-05-09T07:30:57.649Z,1.08
2024-05-09T07:33:25.126Z,1.10
2024-05-09T07:35:53.155Z,1.40
2024-05-09T07:38:20.965Z,1.00
2024-05-09T07:40:49.146Z,1.30
2024-05-09T07:43:16.897Z,0.95
2024-05-09T07:45:53.384Z,1.33
2024-05-09T07:52:38.353Z,1.25
2024-05-09T07:53:49.921Z,1.33
2024-05-09T07:56:22.580Z,1.52
2024-05-09T07:58:53.797Z,1.20
2024-05-09T08:01:21.551Z,1.13
2024-05-09T08:03:50.855Z,1.25
2024-05-09T08:06:21.354Z,1.27
2024-05-09T08:08:48.939Z,1.05
2024-05-09T08:11:16.623Z,1.23
2024-05-09T08:13:44.399Z,1.27
2024-05-09T08:16:13.752Z,1.30
2024-05-09T08:18:42.305Z,1.00
2024-05-09T08:21:09.704Z,1.40
2024-05-09T08:23:36.948Z,0.88
2024-05-09T08:26:04.589Z,1.05
2024-05-09T08:28:32.029Z,1.02
2024-05-09T08:31:00.520Z,1.20
2024-05-09T08:33:29.274Z,0.98
2024-05-09T08:35:58.388Z,0.98
2024-05-09T08:38:25.672Z,1.50
2024-05-09T08:40:53.291Z,1.48
2024-05-09T08:43:21.169Z,1.13
2024-05-09T08:45:50.382Z,1.38
2024-05-09T08:48:20.201Z,0.93
2024-05-09T08:50:50.630Z,1.60
2024-05-09T08:53:19.412Z,1.20
2024-05-09T08:55:48.771Z,1.15
2024-05-09T08:58:23.551Z,1.23
2024-05-09T09:00:54.468Z,0.93
2024-05-09T09:03:32.484Z,1.27
2024-05-09T09:06:00.320Z,0.93
2024-05-09T09:08:28.745Z,1.60
2024-05-09T09:10:59.938Z,1.23
2024-05-09T09:13:28.062Z,1.20
2024-05-09T09:15:59.184Z,1.33
2024-05-09T09:18:31.041Z,1.80
2024-05-09T09:20:59.078Z,1.60
2024-05-09T09:23:30.493Z,1.33
2024-05-09T09:26:01.890Z,1.17
2024-05-09T09:28:30.158Z,0.88
2024-05-09T09:31:05.057Z,0.80
2024-05-09T09:33:36.039Z,1.17
2024-05-09T09:36:08.962Z,1.17
2024-05-09T09:38:40.182Z,1.00
2024-05-09T09:41:09.306Z,1.25
2024-05-09T09:43:39.342Z,1.45
2024-05-09T09:46:11.581Z,1.27
2024-05-09T09:48:42.162Z,1.30
2024-05-09T09:51:18.946Z,1.27
2024-05-09T09:53:49.586Z,1.48
2024-05-09T09:56:24.570Z,1.83
2024-05-09T09:58:55.987Z,1.50
2024-05-09T10:01:24.052Z,1.38
2024-05-09T10:03:54.228Z,1.33
2024-05-09T10:06:23.836Z,1.25
2024-05-09T10:08:52.020Z,1.25
2024-05-09T10:11:22.360Z,1.35
2024-05-09T10:13:51.910Z,1.92
2024-05-09T10:16:23.316Z,1.20
2024-05-09T10:18:51.426Z,1.83
2024-05-09T10:21:20.148Z,1.00
2024-05-09T10:24:03.674Z,1.65
2024-05-09T10:26:34.195Z,1.55
2024-05-09T10:29:14.529Z,1.67
2024-05-09T10:31:44.793Z,2.20
2024-05-09T10:34:20.093Z,1.98
2024-05-09T10:36:55.231Z,1.77
2024-05-09T10:39:26.089Z,1.50
2024-05-09T10:41:53.619Z,1.48
2024-05-09T10:44:22.177Z,1.30
2024-05-09T10:46:50.597Z,1.90
2024-05-09T10:49:18.243Z,1.60
2024-05-09T10:51:47.540Z,1.50
2024-05-09T10:54:15.186Z,1.65
2024-05-09T10:56:42.526Z,1.58
2024-05-09T10:59:10.072Z,1.40
2024-05-09T11:01:37.759Z,1.80
2024-05-09T11:04:05.972Z,1.90
2024-05-09T11:06:36.224Z,1.48
2024-05-09T11:09:03.960Z,1.70
2024-05-09T11:11:33.779Z,2.20
2024-05-09T11:14:12.066Z,1.58
2024-05-09T11:16:39.778Z,1.33
2024-05-09T11:19:12.773Z,1.95
2024-05-09T11:21:41.119Z,1.88
2024-05-09T11:24:11.131Z,1.50
2024-05-09T11:26:41.865Z,1.85
2024-05-09T11:29:11.816Z,2.50
2024-05-09T11:31:46.950Z,1.83
2024-05-09T11:34:15.828Z,1.50
2024-05-09T11:36:43.371Z,2.13
2024-05-09T11:39:11.903Z,2.05
2024-05-09T11:41:39.689Z,1.77
2024-05-09T11:44:07.212Z,2.35
2024-05-09T11:46:34.797Z,2.10
2024-05-09T11:49:02.642Z,1.92
2024-05-09T11:51:33.233Z,2.15
2024-05-09T11:54:00.843Z,2.30
2024-05-09T11:56:28.750Z,1.92
2024-05-09T11:58:56.591Z,1.83
2024-05-09T12:01:27.561Z,1.88
2024-05-09T12:03:55.893Z,1.90
2024-05-09T12:06:23.749Z,2.08
2024-05-09T12:08:51.627Z,2.47
2024-05-09T12:11:19.405Z,1.92
2024-05-09T12:13:49.639Z,1.95
2024-05-09T12:16:17.266Z,2.08
2024-05-09T12:18:45.188Z,1.75
2024-05-09T12:21:17.422Z,1.85
2024-05-09T12:23:45.314Z,2.20
2024-05-09T12:26:12.798Z,1.90
2024-05-09T12:28:40.191Z,1.70
2024-05-09T12:31:07.674Z,1.92
2024-05-09T12:33:35.346Z,2.55
2024-05-09T12:36:02.825Z,1.70
2024-05-09T12:38:30.466Z,1.45
2024-05-09T12:40:58.155Z,2.17
2024-05-09T12:43:25.923Z,1.73
2024-05-09T12:45:53.578Z,2.28
2024-05-09T12:48:21.251Z,2.10
2024-05-09T12:50:48.983Z,1.80
2024-05-09T12:53:16.759Z,2.05
2024-05-09T12:55:53.371Z,1.80
2024-05-09T12:58:25.923Z,1.95
2024-05-09T13:01:13.071Z,1.63
2024-05-09T13:03:40.846Z,2.13
2024-05-09T13:06:09.067Z,2.10
2024-05-09T13:08:36.829Z,1.80
2024-05-09T13:11:04.456Z,2.13
2024-05-09T13:13:31.949Z,1.60
2024-05-09T13:15:59.832Z,2.00
2024-05-09T13:18:27.915Z,1.63
2024-05-09T13:20:55.354Z,2.20
2024-05-09T13:23:22.861Z,2.08
2024-05-09T13:25:50.611Z,2.20
2024-05-09T13:28:18.289Z,2.45
2024-05-09T13:30:45.774Z,2.42
2024-05-09T13:33:14.315Z,1.83
2024-05-09T13:35:47.330Z,2.00
2024-05-09T13:38:20.047Z,2.30
2024-05-09T13:40:48.206Z,1.98
2024-05-09T13:43:16.156Z,2.78
2024-05-09T13:45:44.115Z,3.22
2024-05-09T13:48:12.082Z,2.05
2024-05-09T13:50:39.888Z,2.00
2024-05-09T13:53:08.518Z,2.08
2024-05-09T13:55:40.499Z,2.10
2024-05-09T13:58:09.549Z,1.60
2024-05-09T14:00:46.740Z,2.50
2024-05-09T14:03:19.291Z,1.98
2024-05-09T14:05:50.404Z,1.65
2024-05-09T14:08:20.446Z,2.00
2024-05-09T14:10:48.593Z,2.13
2024-05-09T14:13:16.375Z,1.88
2024-05-09T14:15:45.700Z,2.45
2024-05-09T14:18:14.381Z,2.30
2024-05-09T14:20:43.194Z,2.47
2024-05-09T14:23:11.155Z,2.42
2024-05-09T14:25:42.608Z,2.10
2024-05-09T14:28:13.071Z,3.08
2024-05-09T14:30:42.095Z,2.20
2024-05-09T14:33:10.262Z,2.63
2024-05-09T14:35:38.713Z,2.10
2024-05-09T14:38:07.458Z,2.83
2024-05-09T14:40:41.377Z,2.80
2024-05-09T14:43:13.490Z,2.25
2024-05-09T14:45:42.000Z,2.17
2024-05-09T14:48:10.119Z,2.20
2024-05-09T14:50:39.653Z,2.05
2024-05-09T14:53:10.473Z,1.75
2024-05-09T14:55:40.596Z,1.92
2024-05-09T14:58:10.666Z,3.10
2024-05-09T15:00:44.766Z,2.13
2024-05-09T15:03:15.935Z,2.00
2024-05-09T15:05:44.279Z,1.80
2024-05-09T15:08:11.793Z,1.83
2024-05-09T15:10:39.974Z,2.08
2024-05-09T15:13:13.166Z,1.85
2024-05-09T15:15:42.897Z,1.90
2024-05-09T15:18:10.545Z,1.80
2024-05-09T15:20:38.305Z,1.85
2024-05-09T15:23:07.380Z,2.53
2024-05-09T15:25:36.859Z,2.45
2024-05-09T15:28:07.960Z,2.67
2024-05-09T15:30:36.725Z,2.25
2024-05-09T15:33:05.348Z,2.40
2024-05-09T15:35:35.966Z,1.45
2024-05-09T15:38:04.704Z,2.03
2024-05-09T15:40:39.117Z,2.30
2024-05-09T15:43:11.192Z,2.30
2024-05-09T15:45:41.047Z,2.53
2024-05-09T15:48:10.537Z,2.78
2024-05-09T15:50:41.478Z,2.30
2024-05-09T15:53:12.585Z,2.55
2024-05-09T15:55:41.637Z,2.58
2024-05-09T15:58:10.081Z,2.08
2024-05-09T16:00:41.729Z,2.70
2024-05-09T16:05:45.746Z,1.90
2024-05-09T16:08:15.016Z,1.63
2024-05-09T16:10:46.205Z,2.08
2024-05-09T16:13:15.771Z,2.50
2024-05-09T16:15:44.131Z,2.05
2024-05-09T16:18:12.208Z,2.05
2024-05-09T16:20:42.125Z,2.22
2024-05-09T16:23:11.523Z,2.40
2024-05-09T16:25:40.058Z,2.35
2024-05-09T16:28:10.361Z,2.67
2024-05-09T16:30:41.140Z,2.75
2024-05-09T16:33:09.764Z,1.92
2024-05-09T16:35:45.157Z,2.17
2024-05-09T16:38:12.673Z,2.28
2024-05-09T16:40:41.423Z,1.90
2024-05-09T16:43:10.664Z,2.47
2024-05-09T16:45:44.985Z,2.60
2024-05-09T16:48:14.271Z,2.33
2024-05-09T16:50:42.558Z,1.95
2024-05-09T16:53:10.215Z,2.10
2024-05-09T16:55:38.713Z,2.45
2024-05-09T16:58:12.259Z,2.80
2024-05-09T17:03:15.718Z,1.63
2024-05-09T17:05:56.510Z,1.92
2024-05-09T17:08:25.136Z,2.78
2024-05-09T17:10:52.883Z,2.85
2024-05-09T17:13:20.899Z,2.47
2024-05-09T17:15:52.441Z,2.78
2024-05-09T17:18:20.540Z,2.40
2024-05-09T17:20:50.468Z,3.03
2024-05-09T17:23:18.517Z,2.25
2024-05-09T17:25:46.239Z,2.42
2024-05-09T17:28:14.631Z,2.97
2024-05-09T17:30:43.014Z,3.13
2024-05-09T17:33:12.280Z,2.40
2024-05-09T17:35:40.741Z,1.92
2024-05-09T17:38:08.871Z,2.70
2024-05-09T17:40:38.258Z,3.22
2024-05-09T17:43:09.711Z,2.72
2024-05-09T17:45:40.481Z,2.95
2024-05-09T17:48:12.161Z,2.30
2024-05-09T17:50:41.637Z,2.78
2024-05-09T17:53:11.199Z,2.90
2024-05-09T17:55:39.853Z,2.50
2024-05-09T17:58:08.085Z,2.90
2024-05-09T18:00:39.714Z,3.10
2024-05-09T18:03:13.903Z,3.13
2024-05-09T18:05:43.990Z,2.00
2024-05-09T18:08:13.088Z,2.38
2024-05-09T18:10:41.721Z,2.53
2024-05-09T18:13:10.609Z,2.35
2024-05-09T18:15:39.108Z,3.22
2024-05-09T18:18:08.128Z,3.20
2024-05-09T18:20:42.502Z,3.35
2024-05-09T18:23:18.395Z,2.67
2024-05-09T18:25:47.658Z,3.00
2024-05-09T18:28:16.955Z,3.10
2024-05-09T18:30:45.332Z,3.40
2024-05-09T18:33:13.486Z,2.55
2024-05-09T18:35:45.542Z,2.45
2024-05-09T18:38:13.372Z,2.55
2024-05-09T18:40:43.570Z,3.10
2024-05-09T18:43:12.540Z,2.60
2024-05-09T18:45:40.412Z,2.72
2024-05-09T18:48:10.135Z,2.80
2024-05-09T18:50:40.698Z,2.63
2024-05-09T18:53:11.759Z,3.00
2024-05-09T18:55:44.119Z,2.53
2024-05-09T18:58:11.890Z,3.58
2024-05-09T19:00:42.763Z,2.67
2024-05-09T19:03:14.539Z,3.33
2024-05-09T19:05:45.021Z,2.80
2024-05-09T19:08:15.601Z,2.53
2024-05-09T19:10:45.960Z,3.35
2024-05-09T19:13:14.961Z,3.15
2024-05-09T19:15:43.567Z,3.22
2024-05-09T19:18:13.708Z,3.30
2024-05-09T19:20:42.423Z,2.80
2024-05-09T19:23:11.933Z,2.92
2024-05-09T19:25:40.132Z,2.83
2024-05-09T19:28:07.759Z,3.60
2024-05-09T19:30:40.262Z,2.85
2024-05-09T19:33:13.353Z,3.10
2024-05-09T19:35:43.011Z,3.28
2024-05-09T19:38:11.150Z,2.65
2024-05-09T19:40:38.788Z,3.45
2024-05-09T19:43:07.132Z,3.63
2024-05-09T19:45:36.192Z,3.40
2024-05-09T19:48:05.936Z,3.00
2024-05-09T19:50:41.361Z,3.00
2024-05-09T19:53:13.492Z,2.78
2024-05-09T19:55:41.924Z,3.33
2024-05-09T19:58:13.278Z,3.28
2024-05-09T20:00:43.123Z,3.60
2024-05-09T20:03:13.443Z,3.55
2024-05-09T20:05:44.487Z,3.58
2024-05-09T20:08:12.778Z,3.58
2024-05-09T20:10:40.495Z,3.78
2024-05-09T20:13:08.931Z,3.83
2024-05-09T20:15:38.079Z,3.20
2024-05-09T20:18:07.080Z,3.80
2024-05-09T20:20:39.612Z,3.63
2024-05-09T20:23:14.476Z,3.30
2024-05-09T20:25:42.468Z,3.47
2024-05-09T20:28:10.993Z,2.83
2024-05-09T20:30:39.165Z,3.28
2024-05-09T20:33:08.638Z,2.97
2024-05-09T20:35:37.446Z,2.78
2024-05-09T20:38:05.822Z,2.92
2024-05-09T20:40:37.668Z,3.45
2024-05-09T20:43:10.141Z,2.90
2024-05-09T20:45:39.217Z,3.05
2024-05-09T20:48:08.434Z,3.88
2024-05-09T20:50:40.324Z,3.22
2024-05-09T20:53:15.204Z,3.80
2024-05-09T20:55:44.519Z,3.63
2024-05-09T20:58:13.315Z,3.47
2024-05-09T21:00:44.467Z,2.50
2024-05-09T21:03:16.499Z,2.95
2024-05-09T21:05:45.586Z,3.47
2024-05-09T21:08:13.463Z,2.92
2024-05-09T21:10:41.570Z,2.45
2024-05-09T21:13:09.095Z,3.05
2024-05-09T21:15:36.719Z,2.40
2024-05-09T21:18:05.188Z,3.00
2024-05-09T21:20:37.793Z,3.75
2024-05-09T21:23:05.657Z,3.13
2024-05-09T21:25:33.137Z,2.97
2024-05-09T21:28:01.151Z,3.35
2024-05-09T21:30:38.435Z,3.42
2024-05-09T21:33:11.767Z,3.72
2024-05-09T21:35:42.043Z,3.40
2024-05-09T21:38:09.780Z,3.28
2024-05-09T21:40:38.200Z,3.05
2024-05-09T21:43:09.697Z,3.00
2024-05-09T21:45:37.872Z,3.00
2024-05-09T21:48:06.546Z,3.35
2024-05-09T21:50:40.136Z,3.03
2024-05-09T21:53:12.081Z,3.55
2024-05-09T21:55:43.317Z,3.33
2024-05-09T21:58:12.494Z,3.42
2024-05-09T22:00:42.973Z,3.00
2024-05-09T22:03:11.716Z,4.10
2024-05-09T22:05:43.719Z,3.20
2024-05-09T22:08:11.547Z,3.17
2024-05-09T22:10:39.194Z,3.53
2024-05-09T22:13:07.399Z,3.03
2024-05-09T22:15:37.397Z,2.80
2024-05-09T22:18:06.594Z,3.10
2024-05-09T22:20:38.293Z,3.75
2024-05-09T22:23:08.479Z,2.85
2024-05-09T22:25:37.146Z,3.05
2024-05-09T22:28:05.253Z,3.63
2024-05-09T22:30:37.280Z,3.42
2024-05-09T22:33:09.543Z,3.20
2024-05-09T22:35:38.762Z,3.17
2024-05-09T22:38:06.661Z,3.22
2024-05-09T22:40:45.160Z,3.25
2024-05-09T22:43:24.194Z,3.08
2024-05-09T22:45:55.151Z,3.03
2024-05-09T22:48:24.766Z,3.25
2024-05-09T22:50:54.211Z,3.38
2024-05-09T22:53:24.745Z,3.58
2024-05-09T22:55:52.826Z,2.92
2024-05-09T22:58:21.078Z,4.07
2024-05-09T23:00:48.914Z,3.28
2024-05-09T23:03:16.947Z,3.35
2024-05-09T23:05:44.738Z,3.15
2024-05-09T23:08:12.190Z,3.50
2024-05-09T23:10:39.839Z,2.80
2024-05-09T23:13:08.355Z,3.15
2024-05-09T23:15:38.731Z,2.75
2024-05-09T23:18:07.448Z,2.80
2024-05-09T23:20:38.726Z,2.92
2024-05-09T23:23:08.830Z,3.00
2024-05-09T23:25:37.843Z,2.95
2024-05-09T23:28:06.348Z,3.05
2024-05-09T23:30:38.740Z,2.83
2024-05-09T23:33:12.767Z,2.63
2024-05-09T23:35:44.517Z,2.60
2024-05-09T23:38:13.135Z,2.22
2024-05-09T23:40:42.141Z,2.85
2024-05-09T23:43:12.101Z,2.95
2024-05-09T23:45:40.809Z,3.00
2024-05-09T23:48:08.785Z,2.50
2024-05-09T23:50:38.642Z,2.97
2024-05-09T23:53:09.527Z,2.65
2024-05-09T23:55:38.218Z,2.55
2024-05-09T23:58:07.042Z,3.22
